Time;durP1;ratioP1;P1;durP2;ratioP2;P2;SDS_P1;SDS_P2;PMS_P1;PMS_P2;Temp;Humidity;BMP_temperature;BMP_pressure;BME280_temperature;BME280_humidity;BME280_pressure;Samples;Min_cycle;Max_cycle;Signal;HPM_P1;HPM_P2
2022/05/17 00:01:25;;;;;;;21.07;15.33;;;;;;;;;;5093585;28;20498;-70
2022/05/17 00:03:53;;;;;;;22.43;17.40;;;;;;;;;;5093471;28;20445;-70
2022/05/17 00:06:20;;;;;;;21.30;16.50;;;;;;;;;;5093100;28;20450;-70
2022/05/17 00:08:47;;;;;;;20.13;16.33;;;;;;;;;;5093298;28;20816;-70
2022/05/17 00:11:15;;;;;;;20.80;16.50;;;;;;;;;;5094275;28;20461;-70
2022/05/17 00:13:43;;;;;;;21.20;14.80;;;;;;;;;;5096794;28;20439;-70
2022/05/17 00:16:11;;;;;;;21.00;15.70;;;;;;;;;;5096781;28;20440;-70
2022/05/17 00:18:38;;;;;;;19.43;16.30;;;;;;;;;;5097112;28;20436;-70
2022/05/17 00:21:06;;;;;;;24.47;15.87;;;;;;;;;;5096885;28;20481;-70
2022/05/17 00:23:34;;;;;;;25.27;17.70;;;;;;;;;;5097204;28;20575;-71
2022/05/17 00:26:01;;;;;;;23.80;15.70;;;;;;;;;;5096935;28;20490;-71
2022/05/17 00:28:28;;;;;;;19.00;15.40;;;;;;;;;;5096865;28;20536;-70
2022/05/17 00:30:58;;;;;;;19.63;17.53;;;;;;;;;;5096293;28;20446;-71
2022/05/17 00:33:25;;;;;;;21.07;16.87;;;;;;;;;;5097056;28;20448;-70
2022/05/17 00:35:53;;;;;;;23.90;15.53;;;;;;;;;;5096607;28;20442;-71
2022/05/17 00:38:20;;;;;;;25.30;17.57;;;;;;;;;;5096587;28;20448;-71
2022/05/17 00:40:48;;;;;;;19.87;17.00;;;;;;;;;;5096672;28;20475;-70
2022/05/17 00:43:16;;;;;;;23.67;17.83;;;;;;;;;;5096615;28;20452;-71
2022/05/17 00:45:44;;;;;;;21.10;17.33;;;;;;;;;;5096138;28;20960;-70
2022/05/17 00:48:13;;;;;;;23.73;16.50;;;;;;;;;;5096209;28;20475;-71
2022/05/17 00:50:42;;;;;;;17.73;15.77;;;;;;;;;;5096315;28;20447;-71
2022/05/17 00:53:11;;;;;;;19.83;16.70;;;;;;;;;;5096263;28;20448;-72
2022/05/17 00:55:40;;;;;;;19.37;16.50;;;;;;;;;;5096425;28;20438;-71
2022/05/17 00:58:11;;;;;;;22.50;16.57;;;;;;;;;;5096007;28;20442;-71
2022/05/17 01:00:41;;;;;;;17.90;15.90;;;;;;;;;;5096106;28;20468;-71
2022/05/17 01:03:09;;;;;;;22.00;16.17;;;;;;;;;;5096274;28;20436;-71
2022/05/17 01:16:51;;;;;;;22.50;17.10;;;;;;;;;;5055893;28;20540;-72
2022/05/17 01:19:18;;;;;;;24.40;16.67;;;;;;;;;;5055294;28;20447;-71
2022/05/17 01:21:47;;;;;;;20.47;16.40;;;;;;;;;;5055245;28;20520;-71
2022/05/17 01:24:14;;;;;;;19.97;16.00;;;;;;;;;;5053795;28;20454;-71
2022/05/17 01:26:42;;;;;;;18.63;15.13;;;;;;;;;;5054890;28;20445;-71
2022/05/17 01:29:10;;;;;;;18.87;15.97;;;;;;;;;;5054776;28;20441;-71
2022/05/17 01:31:38;;;;;;;16.90;14.60;;;;;;;;;;5054873;28;20835;-71
2022/05/17 01:34:06;;;;;;;20.90;16.50;;;;;;;;;;5054869;28;20534;-72
2022/05/17 01:36:33;;;;;;;15.33;13.73;;;;;;;;;;5055805;28;20451;-71
2022/05/17 01:39:02;;;;;;;24.27;14.93;;;;;;;;;;5055288;28;20450;-71
2022/05/17 01:41:29;;;;;;;17.83;14.30;;;;;;;;;;5054511;28;20478;-72
2022/05/17 01:43:56;;;;;;;21.60;15.80;;;;;;;;;;5054729;28;20446;-72
2022/05/17 01:46:24;;;;;;;17.43;15.00;;;;;;;;;;5054692;28;20449;-71
2022/05/17 01:48:51;;;;;;;19.20;15.33;;;;;;;;;;5054535;28;20453;-71
2022/05/17 01:51:20;;;;;;;20.30;14.70;;;;;;;;;;5054823;28;20453;-72
2022/05/17 01:53:47;;;;;;;20.07;15.63;;;;;;;;;;5054665;28;20446;-72
2022/05/17 01:56:15;;;;;;;17.60;14.70;;;;;;;;;;5054348;28;20447;-72
2022/05/17 01:58:43;;;;;;;21.03;14.93;;;;;;;;;;5054107;28;20438;-71
2022/05/17 02:01:11;;;;;;;24.50;15.17;;;;;;;;;;5053852;28;20492;-71
2022/05/17 02:03:38;;;;;;;17.10;15.33;;;;;;;;;;5054225;28;20476;-71
2022/05/17 02:06:05;;;;;;;21.70;15.10;;;;;;;;;;5053748;28;20448;-71
2022/05/17 02:08:32;;;;;;;17.80;14.33;;;;;;;;;;5054141;28;20500;-72
2022/05/17 02:11:00;;;;;;;21.90;14.30;;;;;;;;;;5053619;28;20537;-71
2022/05/17 02:13:29;;;;;;;20.43;15.03;;;;;;;;;;5054070;28;20476;-72
2022/05/17 02:15:56;;;;;;;15.07;13.57;;;;;;;;;;5053589;28;20444;-71
2022/05/17 02:18:23;;;;;;;22.17;15.03;;;;;;;;;;5053932;28;20439;-72
2022/05/17 02:20:51;;;;;;;22.53;14.23;;;;;;;;;;5053712;28;20868;-71
2022/05/17 02:23:18;;;;;;;20.23;14.10;;;;;;;;;;5054109;28;20442;-72
2022/05/17 02:25:45;;;;;;;17.07;14.23;;;;;;;;;;5053452;28;21025;-71
2022/05/17 02:28:13;;;;;;;22.60;15.03;;;;;;;;;;5053946;28;20443;-71
2022/05/17 02:30:42;;;;;;;16.13;14.50;;;;;;;;;;5053232;28;20969;-71
2022/05/17 02:33:09;;;;;;;19.03;15.03;;;;;;;;;;5053926;28;20439;-71
2022/05/17 02:35:36;;;;;;;19.37;14.40;;;;;;;;;;5053300;28;20518;-71
2022/05/17 02:38:04;;;;;;;20.53;15.40;;;;;;;;;;5053552;28;20533;-71
2022/05/17 02:40:32;;;;;;;21.13;16.50;;;;;;;;;;5053322;28;20451;-71
2022/05/17 02:42:59;;;;;;;22.23;15.60;;;;;;;;;;5053722;28;20937;-71
2022/05/17 02:45:26;;;;;;;18.33;15.10;;;;;;;;;;5053066;28;20444;-71
2022/05/17 02:47:55;;;;;;;26.93;16.37;;;;;;;;;;5053394;28;20541;-72
2022/05/17 02:50:22;;;;;;;18.20;16.27;;;;;;;;;;5052906;28;20462;-71
2022/05/17 02:52:49;;;;;;;19.30;15.53;;;;;;;;;;5053431;28;20453;-72
2022/05/17 02:55:16;;;;;;;17.30;14.60;;;;;;;;;;5053646;28;20450;-72
2022/05/17 02:57:44;;;;;;;23.27;14.77;;;;;;;;;;5052909;28;20445;-71
2022/05/17 03:00:13;;;;;;;18.33;13.60;;;;;;;;;;5053073;28;20445;-71
2022/05/17 03:02:40;;;;;;;17.57;14.10;;;;;;;;;;5052799;28;20481;-71
2022/05/17 03:05:09;;;;;;;19.30;15.27;;;;;;;;;;5053208;28;20528;-72
2022/05/17 03:07:36;;;;;;;18.23;14.67;;;;;;;;;;5052864;28;20934;-71
2022/05/17 03:10:04;;;;;;;18.63;13.20;;;;;;;;;;5052664;28;20447;-72
2022/05/17 03:12:31;;;;;;;15.70;13.37;;;;;;;;;;5052533;28;20485;-72
2022/05/17 03:14:59;;;;;;;27.23;14.43;;;;;;;;;;5053211;28;20434;-72
2022/05/17 03:17:27;;;;;;;17.00;14.70;;;;;;;;;;5052883;28;20445;-72
2022/05/17 03:19:54;;;;;;;16.40;12.73;;;;;;;;;;5052837;28;20439;-71
2022/05/17 03:22:23;;;;;;;18.53;13.87;;;;;;;;;;5052578;28;20474;-71
2022/05/17 03:24:51;;;;;;;21.60;13.73;;;;;;;;;;5052844;28;20532;-72
2022/05/17 03:27:19;;;;;;;21.17;16.00;;;;;;;;;;5052835;28;20488;-71
2022/05/17 03:29:47;;;;;;;19.30;14.03;;;;;;;;;;5052764;28;20859;-72
2022/05/17 03:32:14;;;;;;;18.30;14.10;;;;;;;;;;5052447;28;20845;-71
2022/05/17 03:34:41;;;;;;;18.80;14.00;;;;;;;;;;5052801;28;20454;-71
2022/05/17 03:37:08;;;;;;;21.70;13.40;;;;;;;;;;5052676;28;20439;-71
2022/05/17 03:39:37;;;;;;;15.40;12.83;;;;;;;;;;5052700;28;20448;-71
2022/05/17 03:42:04;;;;;;;17.10;13.73;;;;;;;;;;5052483;28;20485;-71
2022/05/17 03:44:31;;;;;;;14.83;13.00;;;;;;;;;;5052299;28;20451;-71
2022/05/17 03:46:59;;;;;;;18.13;13.90;;;;;;;;;;5055367;28;20446;-72
2022/05/17 03:49:26;;;;;;;17.27;13.20;;;;;;;;;;5056998;28;20809;-72
2022/05/17 03:51:53;;;;;;;21.33;13.23;;;;;;;;;;5056291;28;20449;-73
2022/05/17 03:54:22;;;;;;;15.93;13.47;;;;;;;;;;5056625;28;20789;-73
2022/05/17 03:56:50;;;;;;;19.20;12.43;;;;;;;;;;5056485;28;20450;-73
2022/05/17 03:59:17;;;;;;;17.87;12.50;;;;;;;;;;5040412;28;20463;-72
2022/05/17 04:01:45;;;;;;;23.97;13.47;;;;;;;;;;5035903;28;20485;-72
2022/05/17 04:04:12;;;;;;;17.50;13.90;;;;;;;;;;5036439;28;20446;-72
2022/05/17 04:06:39;;;;;;;19.50;13.50;;;;;;;;;;5036139;28;20449;-72
2022/05/17 04:09:07;;;;;;;18.47;13.47;;;;;;;;;;5036319;28;20449;-72
2022/05/17 04:11:34;;;;;;;18.23;12.87;;;;;;;;;;5035979;28;20877;-72
2022/05/17 04:14:03;;;;;;;18.77;12.60;;;;;;;;;;5035660;28;20488;-72
2022/05/17 04:16:31;;;;;;;16.13;13.50;;;;;;;;;;5036309;28;20443;-72
2022/05/17 04:18:59;;;;;;;22.53;12.33;;;;;;;;;;5035805;28;20438;-72
2022/05/17 04:21:27;;;;;;;23.00;12.73;;;;;;;;;;5035202;28;20487;-73
2022/05/17 04:23:54;;;;;;;16.53;13.20;;;;;;;;;;5035792;28;20439;-73
2022/05/17 04:26:21;;;;;;;19.07;12.80;;;;;;;;;;5035331;28;20443;-72
2022/05/17 04:28:48;;;;;;;17.40;13.20;;;;;;;;;;5045641;28;20961;-73
2022/05/17 04:31:17;;;;;;;20.03;12.33;;;;;;;;;;5055722;28;20949;-73
2022/05/17 04:33:44;;;;;;;14.63;12.40;;;;;;;;;;5056341;28;20446;-73
2022/05/17 04:36:12;;;;;;;17.40;12.00;;;;;;;;;;5055511;28;20485;-72
2022/05/17 04:38:40;;;;;;;17.73;12.27;;;;;;;;;;5055337;28;20944;-72
2022/05/17 04:41:07;;;;;;;15.47;12.63;;;;;;;;;;5055738;28;20539;-74
2022/05/17 04:43:34;;;;;;;14.50;10.70;;;;;;;;;;5056019;28;20552;-73
2022/05/17 04:46:01;;;;;;;20.23;12.03;;;;;;;;;;5055531;28;20447;-72
2022/05/17 04:48:30;;;;;;;19.80;12.50;;;;;;;;;;5055411;28;20866;-72
2022/05/17 04:50:58;;;;;;;19.70;13.10;;;;;;;;;;5055734;28;20451;-72
2022/05/17 04:53:25;;;;;;;17.87;11.53;;;;;;;;;;5055690;28;20476;-73
2022/05/17 04:55:52;;;;;;;16.33;12.20;;;;;;;;;;5055310;28;20464;-73
2022/05/17 04:58:20;;;;;;;13.80;11.93;;;;;;;;;;5055177;28;20535;-72
2022/05/17 05:00:48;;;;;;;14.83;12.17;;;;;;;;;;5055622;28;20458;-73
2022/05/17 05:03:15;;;;;;;18.07;13.20;;;;;;;;;;5055345;28;20482;-72
2022/05/17 05:05:44;;;;;;;17.40;11.73;;;;;;;;;;5055070;28;20937;-72
2022/05/17 05:08:11;;;;;;;15.80;12.37;;;;;;;;;;5055502;28;20441;-72
2022/05/17 05:10:38;;;;;;;19.83;12.33;;;;;;;;;;5055369;28;20445;-72
2022/05/17 05:13:06;;;;;;;15.90;12.83;;;;;;;;;;5053281;28;20481;-72
2022/05/17 05:15:34;;;;;;;14.33;12.77;;;;;;;;;;5053210;28;20448;-72
2022/05/17 05:18:01;;;;;;;18.07;13.40;;;;;;;;;;5054296;28;20446;-74
2022/05/17 05:20:30;;;;;;;19.87;13.10;;;;;;;;;;5054808;28;21011;-69
2022/05/17 05:22:59;;;;;;;14.77;12.50;;;;;;;;;;5054253;28;20985;-69
2022/05/17 05:25:26;;;;;;;18.00;13.00;;;;;;;;;;5055179;28;20966;-69
2022/05/17 05:27:54;;;;;;;17.47;12.53;;;;;;;;;;5055037;28;20446;-69
2022/05/17 05:30:21;;;;;;;13.50;12.07;;;;;;;;;;5055000;28;20441;-69
2022/05/17 05:32:48;;;;;;;17.73;13.90;;;;;;;;;;5054476;28;20537;-69
2022/05/17 05:35:16;;;;;;;19.47;12.87;;;;;;;;;;5054798;28;20505;-69
2022/05/17 05:37:44;;;;;;;15.37;12.13;;;;;;;;;;5054770;28;20449;-70
2022/05/17 05:40:13;;;;;;;21.10;13.90;;;;;;;;;;5054610;28;20480;-68
2022/05/17 05:42:41;;;;;;;15.13;11.90;;;;;;;;;;5054442;28;20581;-69
2022/05/17 05:45:09;;;;;;;33.23;16.40;;;;;;;;;;5054681;28;20454;-68
2022/05/17 05:48:13;;;;;;;17.27;11.57;;;;;;;;;;5090722;28;20584;-68
2022/05/17 05:50:40;;;;;;;16.20;12.40;;;;;;;;;;5090599;28;20440;-68
2022/05/17 05:53:08;;;;;;;16.17;11.40;;;;;;;;;;5090495;28;20790;-67
2022/05/17 05:55:36;;;;;;;14.47;12.70;;;;;;;;;;5090375;28;20463;-67
2022/05/17 05:58:04;;;;;;;12.53;11.27;;;;;;;;;;5090219;28;20576;-68
2022/05/17 06:00:31;;;;;;;17.97;12.70;;;;;;;;;;5090490;28;20454;-68
2022/05/17 06:02:59;;;;;;;13.57;12.03;;;;;;;;;;5090392;28;20866;-67
2022/05/17 06:05:28;;;;;;;13.77;12.30;;;;;;;;;;5090319;28;20458;-67
2022/05/17 06:07:55;;;;;;;23.73;13.70;;;;;;;;;;5090125;28;20494;-67
2022/05/17 06:10:23;;;;;;;16.03;11.97;;;;;;;;;;5090017;28;20444;-67
2022/05/17 06:12:51;;;;;;;21.80;12.70;;;;;;;;;;5090090;28;20502;-68
2022/05/17 06:15:18;;;;;;;16.13;12.83;;;;;;;;;;5090118;28;20533;-67
2022/05/17 06:17:45;;;;;;;13.80;10.67;;;;;;;;;;5090115;28;20452;-67
2022/05/17 06:20:14;;;;;;;24.53;11.43;;;;;;;;;;5089725;28;20576;-68
2022/05/17 06:22:43;;;;;;;13.73;11.90;;;;;;;;;;5089913;28;20441;-67
2022/05/17 06:25:11;;;;;;;16.30;10.77;;;;;;;;;;5089984;28;20535;-68
2022/05/17 06:27:38;;;;;;;16.63;12.73;;;;;;;;;;5089829;28;20836;-67
2022/05/17 06:30:07;;;;;;;14.13;10.07;;;;;;;;;;5089525;28;20937;-67
2022/05/17 06:32:34;;;;;;;19.50;12.27;;;;;;;;;;5089346;28;20448;-68
2022/05/17 06:35:01;;;;;;;12.10;10.57;;;;;;;;;;5089730;28;20437;-67
2022/05/17 06:37:28;;;;;;;12.80;11.47;;;;;;;;;;5090432;28;20439;-68
2022/05/17 06:39:57;;;;;;;13.17;10.33;;;;;;;;;;5089646;28;20445;-68
2022/05/17 06:42:24;;;;;;;15.30;9.43;;;;;;;;;;5089273;28;20563;-68
2022/05/17 06:44:51;;;;;;;15.03;10.63;;;;;;;;;;5089538;28;20446;-68
2022/05/17 06:47:18;;;;;;;16.30;10.17;;;;;;;;;;5089273;28;20495;-68
2022/05/17 06:49:46;;;;;;;14.33;9.17;;;;;;;;;;5089490;28;20499;-68
2022/05/17 06:52:13;;;;;;;23.20;11.50;;;;;;;;;;5089451;28;20536;-68
2022/05/17 06:54:41;;;;;;;14.63;10.10;;;;;;;;;;5089185;28;20527;-68
2022/05/17 06:57:11;;;;;;;14.07;9.50;;;;;;;;;;5089675;28;20448;-68
2022/05/17 06:59:39;;;;;;;10.70;9.07;;;;;;;;;;5074949;28;20527;-68
2022/05/17 07:02:06;;;;;;;15.17;9.63;;;;;;;;;;5075608;28;20445;-67
2022/05/17 07:04:34;;;;;;;15.13;9.03;;;;;;;;;;5075662;28;20444;-68
2022/05/17 07:07:02;;;;;;;12.53;9.77;;;;;;;;;;5075707;28;20568;-67
2022/05/17 07:09:29;;;;;;;11.07;9.20;;;;;;;;;;5075524;28;20534;-68
2022/05/17 07:14:43;;;;;;;14.30;8.00;;;;;;;;;;5075335;28;20458;-68
2022/05/17 07:17:13;;;;;;;10.87;9.53;;;;;;;;;;5075767;28;20852;-68
2022/05/17 07:19:40;;;;;;;12.90;7.90;;;;;;;;;;5075145;28;20515;-68
2022/05/17 07:22:07;;;;;;;13.50;8.50;;;;;;;;;;5075724;28;20469;-68
2022/05/17 07:24:36;;;;;;;13.80;7.70;;;;;;;;;;5075047;28;20444;-68
2022/05/17 07:27:04;;;;;;;16.33;7.83;;;;;;;;;;5075251;28;20979;-68
2022/05/17 07:29:31;;;;;;;7.60;6.43;;;;;;;;;;5075247;28;20446;-68
2022/05/17 07:32:00;;;;;;;8.53;6.70;;;;;;;;;;5075095;28;20439;-68
2022/05/17 07:34:28;;;;;;;8.23;5.93;;;;;;;;;;5075322;28;20445;-68
2022/05/17 07:36:55;;;;;;;10.50;6.40;;;;;;;;;;5074942;28;20449;-68
2022/05/17 07:39:22;;;;;;;13.13;6.67;;;;;;;;;;5075132;28;20441;-69
2022/05/17 07:41:50;;;;;;;10.17;7.73;;;;;;;;;;5075028;28;20997;-69
2022/05/17 07:44:17;;;;;;;10.97;6.00;;;;;;;;;;5075207;28;20444;-69
2022/05/17 07:46:44;;;;;;;10.20;5.83;;;;;;;;;;5074659;28;20966;-69
2022/05/17 07:49:13;;;;;;;15.67;6.80;;;;;;;;;;5074946;28;20447;-69
2022/05/17 07:51:40;;;;;;;7.67;5.70;;;;;;;;;;5074657;28;20445;-69
2022/05/17 07:54:07;;;;;;;9.07;5.50;;;;;;;;;;5074783;28;20446;-69
2022/05/17 07:56:34;;;;;;;10.77;5.50;;;;;;;;;;5074573;28;20451;-69
2022/05/17 07:59:02;;;;;;;7.13;5.87;;;;;;;;;;5074482;28;20443;-69
2022/05/17 08:01:29;;;;;;;7.97;5.03;;;;;;;;;;5074427;28;20446;-69
2022/05/17 08:03:56;;;;;;;8.20;5.60;;;;;;;;;;5074606;28;20793;-67
2022/05/17 08:06:25;;;;;;;8.90;5.23;;;;;;;;;;5074281;28;20443;-68
2022/05/17 08:08:52;;;;;;;13.97;6.63;;;;;;;;;;5074693;28;20848;-68
2022/05/17 08:11:20;;;;;;;7.30;4.87;;;;;;;;;;5074361;28;20479;-68
2022/05/17 08:13:47;;;;;;;10.67;5.13;;;;;;;;;;5094520;28;20435;-68
2022/05/17 08:16:14;;;;;;;13.63;6.50;;;;;;;;;;5094547;28;20450;-68
2022/05/17 08:18:42;;;;;;;9.87;5.60;;;;;;;;;;5094520;28;20456;-68
2022/05/17 08:21:10;;;;;;;12.67;5.50;;;;;;;;;;5094413;28;20610;-68
2022/05/17 08:23:38;;;;;;;10.67;6.37;;;;;;;;;;5094537;28;20449;-68
2022/05/17 08:28:51;;;;;;;5.53;4.53;;;;;;;;;;5094115;28;20454;-68
2022/05/17 08:31:18;;;;;;;10.80;5.80;;;;;;;;;;5094318;28;20442;-68
2022/05/17 08:33:45;;;;;;;11.30;5.70;;;;;;;;;;5094168;28;20447;-68
2022/05/17 08:36:13;;;;;;;9.60;4.93;;;;;;;;;;5093933;28;20446;-69
2022/05/17 08:38:42;;;;;;;9.73;4.40;;;;;;;;;;5094331;28;20441;-67
2022/05/17 08:41:13;;;;;;;8.40;4.50;;;;;;;;;;5093755;28;20956;-67
2022/05/17 08:43:59;;;;;;;6.23;4.43;;;;;;;;;;5093742;28;20529;-67
2022/05/17 08:46:28;;;;;;;7.77;4.00;;;;;;;;;;5093728;28;20965;-68
2022/05/17 08:48:58;;;;;;;8.00;4.43;;;;;;;;;;5093928;28;20481;-67
2022/05/17 08:51:28;;;;;;;6.30;4.23;;;;;;;;;;5093675;28;20455;-67
2022/05/17 08:53:56;;;;;;;6.53;4.10;;;;;;;;;;5093971;28;20450;-68
2022/05/17 08:56:24;;;;;;;8.20;4.40;;;;;;;;;;5093878;28;20437;-68
2022/05/17 08:58:52;;;;;;;9.70;4.53;;;;;;;;;;5093392;28;20478;-68
2022/05/17 09:01:24;;;;;;;6.80;4.23;;;;;;;;;;5093747;28;20458;-68
2022/05/17 09:03:57;;;;;;;8.33;4.43;;;;;;;;;;5093733;28;20427;-67
2022/05/17 09:06:27;;;;;;;8.77;3.60;;;;;;;;;;5093284;28;20431;-68
2022/05/17 09:08:59;;;;;;;10.83;5.53;;;;;;;;;;5093360;28;20462;-68
2022/05/17 09:11:39;;;;;;;10.37;4.40;;;;;;;;;;5093659;28;20433;-68
2022/05/17 09:14:08;;;;;;;9.70;3.80;;;;;;;;;;5093557;28;20427;-68
2022/05/17 09:16:37;;;;;;;6.20;4.10;;;;;;;;;;5093239;28;20442;-68
2022/05/17 09:19:05;;;;;;;7.80;4.10;;;;;;;;;;5093535;28;20938;-68
2022/05/17 09:21:33;;;;;;;13.73;3.93;;;;;;;;;;5093257;28;20533;-67
2022/05/17 09:24:04;;;;;;;7.10;2.70;;;;;;;;;;5093475;28;20442;-68
2022/05/17 09:26:32;;;;;;;9.63;4.90;;;;;;;;;;5093584;28;20467;-68
2022/05/17 09:29:06;;;;;;;6.50;2.63;;;;;;;;;;5093065;28;20467;-68
2022/05/17 09:31:34;;;;;;;3.77;2.67;;;;;;;;;;5093025;28;20934;-68
2022/05/17 09:34:03;;;;;;;4.53;2.30;;;;;;;;;;5093402;28;20530;-68
2022/05/17 09:36:32;;;;;;;5.20;2.70;;;;;;;;;;5093253;28;20443;-68
2022/05/17 09:39:01;;;;;;;9.37;2.97;;;;;;;;;;5092984;28;20499;-67
2022/05/17 09:41:34;;;;;;;11.47;3.10;;;;;;;;;;5093130;28;20496;-67
2022/05/17 09:44:04;;;;;;;3.57;2.37;;;;;;;;;;5092930;28;20522;-67
2022/05/17 09:46:32;;;;;;;7.73;2.90;;;;;;;;;;5093017;28;20487;-68
2022/05/17 09:54:43;;;;;;;5.60;2.50;;;;;;;;;;5092970;28;20811;-68
2022/05/17 09:57:14;;;;;;;8.67;3.47;;;;;;;;;;5092666;28;20446;-68
2022/05/17 09:59:41;;;;;;;5.90;2.63;;;;;;;;;;5093098;28;20444;-68
2022/05/17 10:02:26;;;;;;;6.37;2.77;;;;;;;;;;5092732;28;20938;-69
2022/05/17 10:04:53;;;;;;;6.77;2.80;;;;;;;;;;5093236;28;20510;-67
2022/05/17 10:07:20;;;;;;;6.90;3.70;;;;;;;;;;5092574;28;21023;-68
2022/05/17 10:09:49;;;;;;;5.60;2.20;;;;;;;;;;5092781;28;20944;-68
2022/05/17 10:12:20;;;;;;;8.60;3.33;;;;;;;;;;5092571;28;20943;-68
2022/05/17 10:14:49;;;;;;;10.30;2.87;;;;;;;;;;5093159;28;20423;-68
2022/05/17 10:17:21;;;;;;;5.70;2.80;;;;;;;;;;5093158;28;20443;-68
2022/05/17 10:19:51;;;;;;;13.33;2.97;;;;;;;;;;5093078;28;20931;-68
2022/05/17 10:22:22;;;;;;;7.00;2.33;;;;;;;;;;5092457;28;20448;-68
2022/05/17 10:24:53;;;;;;;6.90;3.13;;;;;;;;;;5093456;28;20522;-68
2022/05/17 10:27:23;;;;;;;4.83;2.43;;;;;;;;;;5092458;28;20412;-68
2022/05/17 10:29:52;;;;;;;8.50;2.53;;;;;;;;;;5092908;28;20432;-68
2022/05/17 10:32:22;;;;;;;8.50;3.20;;;;;;;;;;5092643;28;20439;-68
2022/05/17 10:34:53;;;;;;;7.13;3.10;;;;;;;;;;5096420;28;20459;-68
2022/05/17 10:37:24;;;;;;;8.03;3.50;;;;;;;;;;5096669;28;20829;-68
2022/05/17 10:39:54;;;;;;;5.20;3.10;;;;;;;;;;5096700;28;20424;-68
2022/05/17 10:42:24;;;;;;;8.07;3.47;;;;;;;;;;5096623;28;20524;-68
2022/05/17 10:44:53;;;;;;;5.33;3.03;;;;;;;;;;5096226;28;20438;-68
2022/05/17 10:47:23;;;;;;;7.10;2.90;;;;;;;;;;5095621;28;20596;-68
2022/05/17 10:50:09;;;;;;;7.77;3.20;;;;;;;;;;5096068;28;20450;-68
2022/05/17 10:52:41;;;;;;;7.97;3.80;;;;;;;;;;5095972;28;20438;-68
2022/05/17 10:55:14;;;;;;;5.03;3.27;;;;;;;;;;5096617;28;20743;-68
2022/05/17 10:57:47;;;;;;;7.50;3.00;;;;;;;;;;5096248;28;20801;-68
2022/05/17 11:00:18;;;;;;;7.10;3.03;;;;;;;;;;5096331;28;20445;-68
2022/05/17 11:03:00;;;;;;;10.40;3.13;;;;;;;;;;5095691;28;20557;-68
2022/05/17 11:05:34;;;;;;;9.50;3.23;;;;;;;;;;5094067;28;20483;-68
2022/05/17 11:08:05;;;;;;;8.17;3.40;;;;;;;;;;5095542;28;20956;-69
2022/05/17 11:10:38;;;;;;;8.83;3.53;;;;;;;;;;5096471;28;20439;-68
2022/05/17 11:13:17;;;;;;;12.27;5.00;;;;;;;;;;5095595;28;20902;-68
2022/05/17 11:15:48;;;;;;;8.03;3.30;;;;;;;;;;5095493;28;20428;-68
2022/05/17 11:18:18;;;;;;;4.50;3.20;;;;;;;;;;5095726;28;20444;-68
2022/05/17 11:20:48;;;;;;;6.30;4.37;;;;;;;;;;5095668;28;20448;-68
2022/05/17 11:23:26;;;;;;;10.57;3.30;;;;;;;;;;5095682;28;20435;-68
2022/05/17 11:26:04;;;;;;;5.27;3.53;;;;;;;;;;5095939;28;20438;-68
2022/05/17 11:29:05;;;;;;;5.30;3.20;;;;;;;;;;5095548;28;20467;-68
2022/05/17 11:31:38;;;;;;;7.27;3.20;;;;;;;;;;5033282;28;20438;-68
2022/05/17 11:34:23;;;;;;;7.13;2.93;;;;;;;;;;5033237;28;20815;-68
2022/05/17 11:36:50;;;;;;;9.83;3.23;;;;;;;;;;5061767;28;20454;-68
2022/05/17 11:39:40;;;;;;;9.37;3.10;;;;;;;;;;5095419;28;20446;-68
2022/05/17 11:42:09;;;;;;;8.20;3.10;;;;;;;;;;5095432;28;20444;-70
2022/05/17 11:44:41;;;;;;;6.50;3.20;;;;;;;;;;5095128;28;20449;-70
2022/05/17 11:47:28;;;;;;;5.00;3.40;;;;;;;;;;5094961;28;20474;-70
2022/05/17 11:50:15;;;;;;;9.63;3.43;;;;;;;;;;5095290;28;20467;-70
2022/05/17 11:52:43;;;;;;;7.07;2.93;;;;;;;;;;5095082;28;20532;-71
2022/05/17 11:55:11;;;;;;;6.13;3.20;;;;;;;;;;5093908;28;20526;-70
2022/05/17 11:58:05;;;;;;;5.53;3.50;;;;;;;;;;5094276;28;20447;-70
2022/05/17 12:00:41;;;;;;;7.53;3.77;;;;;;;;;;5094787;28;20435;-71
2022/05/17 12:03:18;;;;;;;6.17;3.60;;;;;;;;;;5094696;28;20812;-70
2022/05/17 12:05:58;;;;;;;8.70;4.93;;;;;;;;;;5094764;28;20784;-70
2022/05/17 12:08:35;;;;;;;5.47;4.50;;;;;;;;;;5094278;28;20481;-70
2022/05/17 12:11:08;;;;;;;7.83;3.30;;;;;;;;;;5094542;28;20419;-70
2022/05/17 12:13:39;;;;;;;5.97;3.63;;;;;;;;;;5094313;28;20472;-71
2022/05/17 12:16:10;;;;;;;8.10;3.30;;;;;;;;;;5094919;28;20510;-71
2022/05/17 12:18:40;;;;;;;10.93;3.40;;;;;;;;;;5094207;28;20545;-71
2022/05/17 12:21:16;;;;;;;8.07;3.00;;;;;;;;;;5094633;28;20447;-71
2022/05/17 12:23:49;;;;;;;8.40;3.27;;;;;;;;;;5094264;28;20523;-71
2022/05/17 12:26:19;;;;;;;7.30;3.87;;;;;;;;;;5094920;28;20513;-71
2022/05/17 12:28:49;;;;;;;6.67;3.63;;;;;;;;;;5094272;28;20565;-72
2022/05/17 12:31:25;;;;;;;7.13;3.20;;;;;;;;;;5094225;28;20446;-71
2022/05/17 12:33:52;;;;;;;10.77;3.73;;;;;;;;;;5094203;28;20835;-71
2022/05/17 12:36:20;;;;;;;6.67;3.23;;;;;;;;;;5094437;28;20448;-71
2022/05/17 12:44:25;;;;;;;6.20;2.93;;;;;;;;;;5093914;28;20425;-71
2022/05/17 12:46:56;;;;;;;8.90;2.40;;;;;;;;;;5093709;28;20477;-71
2022/05/17 12:49:25;;;;;;;6.07;3.27;;;;;;;;;;5093647;28;20512;-71
2022/05/17 12:51:54;;;;;;;5.17;2.90;;;;;;;;;;5093748;28;20438;-72
2022/05/17 12:54:23;;;;;;;3.70;2.53;;;;;;;;;;5093372;28;20786;-72
2022/05/17 12:56:50;;;;;;;6.00;3.50;;;;;;;;;;5093418;28;20807;-72
2022/05/17 12:59:24;;;;;;;7.53;2.90;;;;;;;;;;5094083;28;20472;-71
2022/05/17 13:01:56;;;;;;;7.33;3.83;;;;;;;;;;5093404;28;20436;-71
2022/05/17 13:04:26;;;;;;;10.40;4.13;;;;;;;;;;5093684;28;20488;-71
2022/05/17 13:06:54;;;;;;;7.53;4.43;;;;;;;;;;5094372;28;20446;-71
2022/05/17 13:09:22;;;;;;;6.30;3.37;;;;;;;;;;5093092;28;20482;-71
2022/05/17 13:11:50;;;;;;;6.07;4.10;;;;;;;;;;5093353;28;20454;-71
2022/05/17 13:14:22;;;;;;;7.37;3.43;;;;;;;;;;5093203;28;20773;-71
2022/05/17 13:16:50;;;;;;;7.63;3.70;;;;;;;;;;5093279;28;20451;-71
2022/05/17 13:19:20;;;;;;;14.77;4.10;;;;;;;;;;5093468;28;20456;-71
2022/05/17 13:21:51;;;;;;;3.63;2.73;;;;;;;;;;5093283;28;20917;-71
2022/05/17 13:24:29;;;;;;;7.43;2.70;;;;;;;;;;5092898;28;20990;-73
2022/05/17 13:26:59;;;;;;;10.47;3.87;;;;;;;;;;5093410;28;20509;-71
2022/05/17 13:29:28;;;;;;;11.63;3.90;;;;;;;;;;5092965;28;20816;-71
2022/05/17 13:31:56;;;;;;;9.53;3.50;;;;;;;;;;5093751;28;20440;-71
2022/05/17 13:34:27;;;;;;;8.50;3.37;;;;;;;;;;5093190;28;20452;-71
2022/05/17 13:37:02;;;;;;;6.33;3.27;;;;;;;;;;5093930;28;20904;-71
2022/05/17 13:39:31;;;;;;;6.67;3.37;;;;;;;;;;5093014;28;20523;-71
2022/05/17 13:41:58;;;;;;;10.53;3.03;;;;;;;;;;5092994;28;20945;-72
2022/05/17 13:44:27;;;;;;;5.30;3.27;;;;;;;;;;5092974;28;20447;-71
2022/05/17 13:46:54;;;;;;;14.03;3.47;;;;;;;;;;5093260;28;20484;-71
2022/05/17 13:49:23;;;;;;;5.90;3.13;;;;;;;;;;5092908;28;20489;-71
2022/05/17 13:51:54;;;;;;;4.87;3.40;;;;;;;;;;5093548;28;20447;-71
2022/05/17 13:54:26;;;;;;;9.77;4.23;;;;;;;;;;5092285;28;20436;-71
2022/05/17 13:56:56;;;;;;;8.90;3.17;;;;;;;;;;5093134;28;20854;-72
2022/05/17 13:59:23;;;;;;;7.73;2.70;;;;;;;;;;5092986;28;20448;-71
2022/05/17 14:01:53;;;;;;;4.13;2.67;;;;;;;;;;5092479;28;20471;-72
2022/05/17 14:04:24;;;;;;;4.40;2.30;;;;;;;;;;5092801;28;20485;-72
2022/05/17 14:06:54;;;;;;;3.43;2.73;;;;;;;;;;5093060;28;20438;-71
2022/05/17 14:12:13;;;;;;;5.53;2.70;;;;;;;;;;5097060;28;20407;-71
2022/05/17 14:14:41;;;;;;;3.53;2.60;;;;;;;;;;5096352;28;20443;-71
2022/05/17 14:17:12;;;;;;;8.80;2.83;;;;;;;;;;5097283;28;20856;-71
2022/05/17 14:19:40;;;;;;;7.40;3.33;;;;;;;;;;5096926;28;20439;-71
2022/05/17 14:22:10;;;;;;;5.77;3.30;;;;;;;;;;5096575;28;20444;-72
2022/05/17 14:24:37;;;;;;;4.07;2.70;;;;;;;;;;5096639;28;20448;-71
2022/05/17 14:27:05;;;;;;;5.37;2.57;;;;;;;;;;5097046;28;20524;-71
2022/05/17 14:29:34;;;;;;;6.20;2.97;;;;;;;;;;5096343;28;20568;-71
2022/05/17 14:32:03;;;;;;;5.87;2.63;;;;;;;;;;5096794;28;20444;-71
2022/05/17 14:34:30;;;;;;;6.20;2.67;;;;;;;;;;5096346;28;20436;-72
2022/05/17 14:36:58;;;;;;;3.97;2.70;;;;;;;;;;5096079;28;20458;-71
2022/05/17 14:39:27;;;;;;;4.60;2.57;;;;;;;;;;5096568;28;20438;-71
2022/05/17 14:41:54;;;;;;;4.17;2.50;;;;;;;;;;5096958;28;20456;-71
2022/05/17 14:44:22;;;;;;;6.83;3.10;;;;;;;;;;5096482;28;20447;-71
2022/05/17 14:46:50;;;;;;;6.07;2.57;;;;;;;;;;5096276;28;20467;-72
2022/05/17 14:49:19;;;;;;;5.83;3.27;;;;;;;;;;5096217;28;20574;-72
2022/05/17 14:51:47;;;;;;;5.40;2.17;;;;;;;;;;5096055;28;20539;-72
2022/05/17 14:54:14;;;;;;;6.73;3.13;;;;;;;;;;5095763;28;20431;-71
2022/05/17 14:56:43;;;;;;;7.33;3.70;;;;;;;;;;5095912;28;20440;-71
2022/05/17 14:59:11;;;;;;;6.53;3.63;;;;;;;;;;5096208;28;20935;-72
2022/05/17 15:01:42;;;;;;;5.53;2.80;;;;;;;;;;5096035;28;20864;-72
2022/05/17 15:04:09;;;;;;;4.37;2.23;;;;;;;;;;5096801;28;20422;-72
2022/05/17 15:06:48;;;;;;;8.03;3.50;;;;;;;;;;5095681;28;20533;-72
2022/05/17 15:09:17;;;;;;;7.13;3.43;;;;;;;;;;5095969;28;20831;-72
2022/05/17 15:11:45;;;;;;;6.10;2.93;;;;;;;;;;5095572;28;20446;-72